Time;durP1;ratioP1;P1;durP2;ratioP2;P2;SDS_P1;SDS_P2;PMS_P1;PMS_P2;Temp;Humidity;BMP_temperature;BMP_pressure;BME280_temperature;BME280_humidity;BME280_pressure;Samples;Min_cycle;Max_cycle;Signal;HPM_P1;HPM_P2
2021/11/14 00:02:03;;;;;;;35.03;18.67;;;;;;;9.48;100.00;101735.66;2611608;36;20123;-72
2021/11/14 00:04:32;;;;;;;35.53;18.67;;;;;;;9.53;100.00;101738.91;2612204;36;20162;-69
2021/11/14 00:07:02;;;;;;;41.55;19.42;;;;;;;9.53;100.00;101735.38;2609813;36;20121;-71
2021/11/14 00:09:31;;;;;;;33.75;18.20;;;;;;;9.51;100.00;101737.28;2611778;31;20031;-69
2021/11/14 00:12:00;;;;;;;31.90;17.07;;;;;;;9.47;100.00;101740.19;2612279;31;20057;-69
2021/11/14 00:14:28;;;;;;;34.22;18.55;;;;;;;9.56;100.00;101733.31;2611101;36;20358;-71
2021/11/14 00:16:56;;;;;;;34.67;17.73;;;;;;;9.51;100.00;101742.66;2612174;36;20162;-69
2021/11/14 00:19:24;;;;;;;33.70;19.33;;;;;;;9.46;100.00;101738.44;2611544;36;20633;-70
2021/11/14 00:21:53;;;;;;;30.20;17.77;;;;;;;9.46;100.00;101745.66;2611487;36;20137;-71
2021/11/14 00:24:24;;;;;;;33.22;18.63;;;;;;;9.45;100.00;101752.00;2610783;36;20137;-72
2021/11/14 00:26:52;;;;;;;33.00;17.15;;;;;;;9.43;100.00;101756.63;2612119;36;20646;-73
2021/11/14 00:29:21;;;;;;;31.92;17.65;;;;;;;9.44;100.00;101755.66;2612022;36;20069;-69
2021/11/14 00:31:49;;;;;;;27.88;16.90;;;;;;;9.50;100.00;101757.94;2612098;36;20030;-69
2021/11/14 00:34:17;;;;;;;31.23;17.08;;;;;;;9.52;100.00;101761.34;2611786;36;20174;-69
2021/11/14 00:36:46;;;;;;;28.30;17.23;;;;;;;9.43;100.00;101759.31;2612457;36;20114;-68
2021/11/14 00:39:19;;;;;;;28.92;16.80;;;;;;;9.47;100.00;101767.06;2611484;36;20031;-69
2021/11/14 00:41:50;;;;;;;30.95;16.35;;;;;;;9.51;100.00;101766.84;2611453;36;20559;-70
2021/11/14 00:44:19;;;;;;;31.85;16.52;;;;;;;9.49;100.00;101769.63;2611454;36;20174;-69
2021/11/14 00:46:48;;;;;;;30.75;16.60;;;;;;;9.61;100.00;101767.91;2611884;36;20078;-72
2021/11/14 00:49:17;;;;;;;27.05;16.17;;;;;;;9.51;100.00;101766.84;2610837;36;20141;-70
2021/11/14 00:51:45;;;;;;;29.90;17.48;;;;;;;9.53;100.00;101771.16;2611378;36;20041;-70
2021/11/14 00:54:14;;;;;;;32.45;18.35;;;;;;;9.51;100.00;101770.41;2611711;31;20146;-72
2021/11/14 00:56:43;;;;;;;33.55;17.38;;;;;;;9.44;100.00;101769.09;2612117;36;20030;-69
2021/11/14 00:59:14;;;;;;;28.23;16.20;;;;;;;9.54;100.00;101766.63;2611869;36;20030;-69
2021/11/14 01:01:42;;;;;;;32.70;17.52;;;;;;;9.54;100.00;101772.88;2611870;31;20431;-70
2021/11/14 01:04:10;;;;;;;32.83;18.38;;;;;;;9.55;100.00;101779.94;2611716;36;20536;-69
2021/11/14 01:09:10;;;;;;;33.13;17.60;;;;;;;9.50;100.00;101782.13;2612150;54;20057;-70
2021/11/14 01:11:38;;;;;;;35.55;19.90;;;;;;;9.54;100.00;101780.06;2610921;36;20038;-69
2021/11/14 01:14:07;;;;;;;28.48;17.55;;;;;;;9.49;100.00;101777.69;2611160;36;20134;-69
2021/11/14 01:16:38;;;;;;;32.85;19.08;;;;;;;9.52;100.00;101777.47;2611741;36;20031;-70
2021/11/14 01:19:07;;;;;;;33.05;19.13;;;;;;;9.53;100.00;101783.72;2611250;36;20613;-69
2021/11/14 01:21:35;;;;;;;29.83;18.70;;;;;;;9.47;100.00;101788.56;2611573;36;20146;-71
2021/11/14 01:24:03;;;;;;;36.13;20.08;;;;;;;9.44;100.00;101794.13;2611636;36;20170;-70
2021/11/14 01:29:01;;;;;;;;;;;;;;;9.47;100.00;101796.63;2611697;36;20491;-70
2021/11/14 01:31:29;;;;;;;37.97;20.73;;;;;;;9.44;100.00;101804.88;2611037;36;19969;-72
2021/11/14 01:34:00;;;;;;;34.05;19.42;;;;;;;9.44;100.00;101804.03;2611167;36;20114;-70
2021/11/14 01:36:31;;;;;;;34.75;19.95;;;;;;;9.43;100.00;101805.00;2611162;36;20178;-70
2021/11/14 01:39:00;;;;;;;37.88;21.00;;;;;;;9.45;100.00;101806.63;2610928;36;20035;-73
2021/11/14 01:41:29;;;;;;;38.22;19.95;;;;;;;9.51;100.00;101815.22;2611563;36;20063;-71
2021/11/14 01:43:57;;;;;;;39.55;22.40;;;;;;;9.44;100.00;101812.94;2612272;36;20129;-71
2021/11/14 01:46:26;;;;;;;37.63;19.67;;;;;;;9.42;100.00;101814.91;2612290;36;20035;-72
2021/11/14 01:48:55;;;;;;;35.08;19.85;;;;;;;9.42;100.00;101817.59;2612036;36;20166;-69
2021/11/14 01:51:26;;;;;;;36.88;20.27;;;;;;;9.50;100.00;101818.88;2611893;36;20143;-69
2021/11/14 01:53:55;;;;;;;34.40;20.73;;;;;;;9.48;100.00;101816.28;2611939;36;20609;-70
2021/11/14 01:56:24;;;;;;;37.50;21.73;;;;;;;9.49;100.00;101823.38;2611243;36;21208;-69
2021/11/14 01:58:53;;;;;;;35.05;20.63;;;;;;;9.53;100.00;101819.53;2612741;31;20499;-69
2021/11/14 02:01:23;;;;;;;35.65;20.75;;;;;;;9.52;100.00;101825.00;2611511;36;20165;-70
2021/11/14 02:03:54;;;;;;;39.88;20.50;;;;;;;9.45;100.00;101814.69;2611983;36;20034;-69
2021/11/14 02:06:27;;;;;;;36.80;19.55;;;;;;;9.43;100.00;101823.81;2611623;36;20038;-68
2021/11/14 02:08:56;;;;;;;36.90;20.35;;;;;;;9.40;100.00;101830.25;2612117;36;20143;-70
2021/11/14 02:11:25;;;;;;;39.08;22.15;;;;;;;9.41;100.00;101831.97;2613197;36;20623;-70
2021/11/14 02:13:54;;;;;;;33.25;19.65;;;;;;;9.33;100.00;101833.47;2612169;36;20035;-70
2021/11/14 02:16:27;;;;;;;35.08;21.02;;;;;;;9.26;100.00;101831.19;2611909;36;20161;-71
2021/11/14 02:18:56;;;;;;;33.95;20.30;;;;;;;9.28;100.00;101836.47;2612695;36;20100;-69
2021/11/14 02:21:27;;;;;;;36.55;22.42;;;;;;;9.23;100.00;101844.84;2612019;36;20511;-70
2021/11/14 02:23:56;;;;;;;41.03;21.75;;;;;;;9.23;100.00;101843.94;2612029;36;20069;-69
2021/11/14 02:26:25;;;;;;;44.75;21.40;;;;;;;9.18;100.00;101848.78;2611584;36;20061;-72
2021/11/14 02:28:55;;;;;;;39.53;22.98;;;;;;;9.16;100.00;101848.88;2611481;36;20551;-69
2021/11/14 02:31:25;;;;;;;38.80;22.88;;;;;;;9.15;100.00;101857.06;2611843;36;20174;-68
2021/11/14 02:33:53;;;;;;;43.17;23.52;;;;;;;9.16;100.00;101851.56;2611617;36;20162;-70
2021/11/14 02:36:23;;;;;;;49.33;26.53;;;;;;;9.10;100.00;101862.75;2611996;31;20154;-71
2021/11/14 02:38:53;;;;;;;;;;;;;;;9.17;100.00;101869.44;2611906;36;20061;-70
2021/11/14 02:41:23;;;;;;;48.20;25.60;;;;;;;9.15;100.00;101867.78;2611969;36;20069;-72
2021/11/14 02:43:54;;;;;;;47.83;26.98;;;;;;;9.18;100.00;101873.81;2612298;36;20527;-72
2021/11/14 02:46:22;;;;;;;42.70;23.88;;;;;;;9.20;100.00;101876.41;2611971;36;20039;-71
2021/11/14 02:48:51;;;;;;;44.88;25.25;;;;;;;9.12;100.00;101883.13;2611698;36;20038;-69
2021/11/14 02:51:23;;;;;;;47.65;26.98;;;;;;;9.17;100.00;101871.22;2611845;36;20953;-69
2021/11/14 02:53:55;;;;;;;51.35;27.95;;;;;;;9.16;100.00;101874.88;2611713;36;20030;-69
2021/11/14 02:56:23;;;;;;;47.42;26.88;;;;;;;9.14;100.00;101876.81;2611394;36;20130;-71
2021/11/14 02:58:51;;;;;;;47.83;26.92;;;;;;;9.16;100.00;101882.94;2611302;36;20681;-70
2021/11/14 03:01:23;;;;;;;52.42;27.95;;;;;;;9.12;100.00;101885.81;2611428;36;20126;-70
2021/11/14 03:03:54;;;;;;;53.22;28.70;;;;;;;9.13;100.00;101889.38;2611265;36;20034;-71
2021/11/14 03:06:23;;;;;;;51.13;28.77;;;;;;;9.10;100.00;101890.44;2612449;31;20046;-69
2021/11/14 03:08:51;;;;;;;54.43;27.00;;;;;;;9.09;100.00;101888.72;2611003;36;20169;-70
2021/11/14 03:11:22;;;;;;;56.28;30.70;;;;;;;9.09;100.00;101885.19;2611661;36;20165;-70
2021/11/14 03:13:50;;;;;;;52.33;27.25;;;;;;;9.11;100.00;101884.13;2612066;36;20035;-72
2021/11/14 03:16:22;;;;;;;55.65;28.75;;;;;;;9.12;100.00;101893.88;2612412;36;20562;-73
2021/11/14 03:18:51;;;;;;;56.22;28.10;;;;;;;9.07;100.00;101896.03;2612114;36;20122;-70
2021/11/14 03:21:19;;;;;;;60.70;31.33;;;;;;;9.13;100.00;101897.44;2612330;36;20542;-69
2021/11/14 03:23:47;;;;;;;60.92;30.15;;;;;;;9.09;100.00;101907.50;2611301;36;20125;-69
2021/11/14 03:26:16;;;;;;;57.83;30.27;;;;;;;9.05;100.00;101911.34;2611466;36;20153;-70
2021/11/14 03:28:47;;;;;;;60.15;28.60;;;;;;;9.06;100.00;101918.47;2611078;31;20129;-72
2021/11/14 03:31:16;;;;;;;62.55;30.73;;;;;;;9.05;100.00;101916.72;2611886;36;20137;-70
2021/11/14 03:33:46;;;;;;;57.28;30.02;;;;;;;9.01;100.00;101920.59;2612676;47;20042;-69
2021/11/14 03:36:17;;;;;;;56.00;28.88;;;;;;;9.09;100.00;101918.25;2611106;36;20121;-70
2021/11/14 03:38:48;;;;;;;64.05;30.05;;;;;;;9.01;100.00;101925.09;2611119;31;20030;-69
2021/11/14 03:41:18;;;;;;;68.75;32.85;;;;;;;8.99;100.00;101919.81;2611506;31;20610;-69
2021/11/14 03:43:53;;;;;;;64.18;31.20;;;;;;;9.02;100.00;101924.97;2612575;36;20503;-72
2021/11/14 03:46:23;;;;;;;65.70;32.80;;;;;;;9.00;100.00;101934.97;2612024;36;20073;-70
2021/11/14 03:48:54;;;;;;;58.08;29.58;;;;;;;8.99;100.00;101927.03;2611626;36;20157;-69
2021/11/14 03:51:23;;;;;;;59.50;29.95;;;;;;;8.96;100.00;101930.75;2611445;36;20169;-69
2021/11/14 03:53:52;;;;;;;;;;;;;;;8.92;100.00;101934.59;2610342;36;21190;-69
2021/11/14 03:56:21;;;;;;;63.95;31.23;;;;;;;8.96;100.00;101932.59;2611361;36;20026;-70
2021/11/14 03:58:52;;;;;;;65.22;32.13;;;;;;;8.93;100.00;101947.91;2611434;36;20145;-69
2021/11/14 04:01:23;;;;;;;63.55;30.05;;;;;;;9.00;100.00;101948.41;2611692;36;20189;-71
2021/11/14 04:03:53;;;;;;;62.75;30.65;;;;;;;9.05;100.00;101946.25;2611667;36;20513;-72
2021/11/14 04:06:22;;;;;;;63.38;31.73;;;;;;;9.00;100.00;101947.56;2611448;36;20173;-69
2021/11/14 04:11:37;;;;;;;59.88;31.80;;;;;;;9.05;100.00;101938.22;2611937;54;20034;-73
2021/11/14 04:14:08;;;;;;;64.53;32.05;;;;;;;8.98;100.00;101944.97;2611455;36;20031;-70
2021/11/14 04:16:37;;;;;;;59.25;28.27;;;;;;;9.05;100.00;101945.41;2611567;36;20057;-73
2021/11/14 04:19:06;;;;;;;66.45;31.48;;;;;;;8.98;100.00;101958.38;2612002;36;20114;-69
2021/11/14 04:21:34;;;;;;;;;;;;;;;9.03;100.00;101958.94;2612005;36;20161;-70
2021/11/14 04:24:03;;;;;;;65.43;28.25;;;;;;;9.08;100.00;101962.22;2611407;36;19950;-71
2021/11/14 04:26:31;;;;;;;59.70;28.67;;;;;;;9.05;100.00;101967.75;2611375;36;20635;-69
2021/11/14 04:28:59;;;;;;;69.15;30.60;;;;;;;9.07;100.00;101968.53;2611588;36;20129;-69
2021/11/14 04:31:30;;;;;;;65.75;31.10;;;;;;;9.22;100.00;101966.66;2611778;36;20467;-69
2021/11/14 04:33:59;;;;;;;60.10;30.42;;;;;;;9.24;100.00;101974.63;2611126;36;20118;-69
2021/11/14 04:36:27;;;;;;;66.10;30.40;;;;;;;9.23;100.00;101972.91;2611382;36;20940;-70
2021/11/14 04:38:55;;;;;;;68.30;30.60;;;;;;;9.25;100.00;101977.22;2612355;36;20543;-69
2021/11/14 04:41:23;;;;;;;67.90;31.05;;;;;;;9.26;100.00;101975.38;2612451;36;20161;-73
2021/11/14 04:43:52;;;;;;;59.00;29.02;;;;;;;9.30;100.00;101979.59;2612277;36;20767;-70
2021/11/14 04:46:21;;;;;;;71.50;33.05;;;;;;;9.28;100.00;101981.53;2610518;36;20031;-70
2021/11/14 04:48:51;;;;;;;67.47;31.83;;;;;;;9.28;100.00;101981.53;2611468;36;20145;-72
2021/11/14 04:51:20;;;;;;;64.70;30.73;;;;;;;9.30;100.00;101984.97;2611765;36;20137;-69
2021/11/14 04:53:48;;;;;;;62.10;30.38;;;;;;;9.31;100.00;101994.75;2611326;36;20214;-71
2021/11/14 04:56:16;;;;;;;67.15;30.58;;;;;;;9.28;100.00;101992.28;2611210;36;20192;-70
2021/11/14 04:58:45;;;;;;;69.60;31.10;;;;;;;9.21;100.00;101996.31;2610941;36;20034;-73
2021/11/14 05:01:14;;;;;;;63.50;30.65;;;;;;;9.21;100.00;101999.00;2611789;36;20912;-71
2021/11/14 05:03:42;;;;;;;74.70;30.90;;;;;;;9.17;100.00;102000.16;2611524;36;20812;-71
2021/11/14 05:06:15;;;;;;;64.97;32.08;;;;;;;9.30;100.00;102001.09;2610956;31;20034;-72
2021/11/14 05:08:43;;;;;;;69.97;32.65;;;;;;;9.23;100.00;102011.38;2610834;36;20031;-72
2021/11/14 05:11:11;;;;;;;70.87;33.40;;;;;;;9.18;100.00;102023.38;2612066;31;20533;-73
2021/11/14 05:13:40;;;;;;;75.13;32.10;;;;;;;9.28;100.00;102013.78;2611391;36;20162;-69
2021/11/14 05:16:08;;;;;;;75.53;33.97;;;;;;;9.22;100.00;102019.53;2611032;36;20134;-72
2021/11/14 05:18:36;;;;;;;76.72;34.22;;;;;;;9.22;100.00;102020.41;2611588;36;20683;-69
2021/11/14 05:21:05;;;;;;;74.47;32.63;;;;;;;9.21;100.00;102017.81;2612332;36;20034;-70
2021/11/14 05:23:36;;;;;;;76.28;33.65;;;;;;;9.22;100.00;102023.09;2610895;36;20153;-70
2021/11/14 05:26:04;;;;;;;68.10;32.35;;;;;;;9.30;100.00;102022.56;2611294;36;20713;-69
2021/11/14 05:28:34;;;;;;;75.38;32.72;;;;;;;9.24;100.00;102033.72;2611204;36;20537;-69
2021/11/14 05:31:02;;;;;;;82.40;35.10;;;;;;;9.30;100.00;102041.38;2612403;36;20537;-70
2021/11/14 05:33:37;;;;;;;82.95;34.20;;;;;;;9.29;100.00;102037.84;2612970;54;20047;-72
2021/11/14 05:36:06;;;;;;;75.07;33.00;;;;;;;9.25;100.00;102048.91;2611528;36;20061;-69
2021/11/14 05:38:37;;;;;;;71.53;33.00;;;;;;;9.23;100.00;102046.31;2610856;36;20126;-71
2021/11/14 05:41:06;;;;;;;84.70;34.67;;;;;;;9.21;100.00;102053.59;2610827;36;20061;-71
2021/11/14 05:43:34;;;;;;;74.40;33.58;;;;;;;9.17;100.00;102059.25;2611211;36;20050;-69
2021/11/14 05:46:02;;;;;;;82.70;34.90;;;;;;;9.20;100.00;102059.94;2611138;36;20061;-71
2021/11/14 05:48:31;;;;;;;83.77;35.47;;;;;;;9.23;100.00;102056.16;2611179;36;20114;-71
2021/11/14 05:50:59;;;;;;;82.63;34.83;;;;;;;9.17;100.00;102064.63;2611592;36;20161;-69
2021/11/14 05:53:27;;;;;;;91.63;34.92;;;;;;;9.12;100.00;102063.09;2611136;36;20073;-69
2021/11/14 05:55:59;;;;;;;90.72;36.83;;;;;;;9.19;100.00;102070.78;2610221;36;20157;-71
2021/11/14 05:58:34;;;;;;;89.03;36.63;;;;;;;9.26;100.00;102072.97;2611263;31;20117;-69
2021/11/14 06:01:10;;;;;;;84.38;34.47;;;;;;;9.28;100.00;102070.19;2611455;36;20885;-69
2021/11/14 06:03:40;;;;;;;81.10;36.00;;;;;;;9.24;100.00;102072.19;2610985;36;20108;-70
2021/11/14 06:06:08;;;;;;;88.68;36.00;;;;;;;9.23;100.00;102070.47;2611277;36;20102;-72
2021/11/14 06:08:36;;;;;;;84.78;34.65;;;;;;;9.27;100.00;102076.50;2610955;36;20186;-69
2021/11/14 06:11:07;;;;;;;75.57;33.57;;;;;;;9.23;100.00;102075.84;2611029;36;20165;-70
2021/11/14 06:13:35;;;;;;;80.65;34.28;;;;;;;9.21;100.00;102079.59;2611518;36;20030;-70
2021/11/14 06:16:04;;;;;;;86.78;36.97;;;;;;;9.28;100.00;102078.25;2611348;36;20200;-69
2021/11/14 06:18:32;;;;;;;76.72;33.72;;;;;;;9.21;100.00;102082.28;2610636;36;20027;-71
2021/11/14 06:21:01;;;;;;;92.05;36.30;;;;;;;9.24;100.00;102093.69;2611222;36;20133;-70
2021/11/14 06:23:29;;;;;;;75.30;33.55;;;;;;;9.23;100.00;102085.72;2611291;36;20142;-70
2021/11/14 06:25:58;;;;;;;80.45;35.75;;;;;;;9.31;100.00;102094.16;2611829;36;20126;-68
2021/11/14 06:28:29;;;;;;;78.85;34.00;;;;;;;9.26;100.00;102104.31;2610986;36;20034;-69
2021/11/14 06:30:58;;;;;;;77.53;33.72;;;;;;;9.25;100.00;102100.78;2612456;36;20030;-70
2021/11/14 06:33:26;;;;;;;79.50;33.50;;;;;;;9.32;100.00;102106.66;2611704;36;20138;-69
2021/11/14 06:35:54;;;;;;;77.63;32.97;;;;;;;9.27;100.00;102108.75;2612189;36;20138;-70
2021/11/14 06:38:22;;;;;;;80.18;34.15;;;;;;;9.30;100.00;102119.31;2611884;31;20994;-69
2021/11/14 06:40:51;;;;;;;68.85;31.75;;;;;;;9.20;100.00;102118.16;2612225;36;20149;-69
2021/11/14 06:43:19;;;;;;;73.70;32.92;;;;;;;9.18;100.00;102122.78;2611798;36;20042;-70
2021/11/14 06:45:50;;;;;;;81.72;34.28;;;;;;;9.14;100.00;102126.59;2612473;36;20162;-70
2021/11/14 06:48:18;;;;;;;76.90;33.88;;;;;;;9.17;100.00;102131.78;2611388;31;20090;-70
2021/11/14 06:50:46;;;;;;;75.93;34.08;;;;;;;9.17;100.00;102140.72;2612375;36;20117;-72
2021/11/14 06:53:15;;;;;;;73.75;32.72;;;;;;;9.15;100.00;102141.75;2611741;36;20141;-69
2021/11/14 06:55:43;;;;;;;89.10;35.05;;;;;;;9.13;100.00;102139.19;2611608;36;20043;-70
2021/11/14 06:58:11;;;;;;;81.33;33.53;;;;;;;9.12;100.00;102138.28;2611221;36;20600;-72
2021/11/14 07:00:42;;;;;;;80.93;34.20;;;;;;;9.12;100.00;102143.66;2611344;36;20302;-71
2021/11/14 07:03:14;;;;;;;71.72;32.65;;;;;;;9.09;100.00;102149.22;2611633;36;20078;-70
2021/11/14 07:05:42;;;;;;;78.40;33.67;;;;;;;9.10;100.00;102158.16;2611928;36;20547;-70
2021/11/14 07:08:11;;;;;;;70.20;31.63;;;;;;;9.17;100.00;102155.94;2611225;36;20633;-73
2021/11/14 07:10:39;;;;;;;78.75;34.03;;;;;;;9.11;100.00;102160.75;2611858;36;20064;-70
2021/11/14 07:13:07;;;;;;;81.37;33.90;;;;;;;9.09;100.00;102173.41;2611426;36;20038;-69
2021/11/14 07:15:36;;;;;;;75.50;33.80;;;;;;;9.16;100.00;102171.22;2612165;36;20030;-70
2021/11/14 07:18:05;;;;;;;68.30;31.25;;;;;;;9.18;100.00;102176.50;2611241;36;20130;-70
2021/11/14 07:20:36;;;;;;;72.30;32.45;;;;;;;9.23;100.00;102174.38;2611891;36;20130;-70
2021/11/14 07:23:04;;;;;;;65.57;30.88;;;;;;;9.18;100.00;102168.44;2612352;36;20166;-70
2021/11/14 07:25:32;;;;;;;64.18;30.30;;;;;;;9.18;100.00;102179.19;2611860;36;20042;-69
2021/11/14 07:28:01;;;;;;;60.17;30.23;;;;;;;9.19;100.00;102188.97;2610802;36;20154;-71
2021/11/14 07:30:30;;;;;;;68.03;30.50;;;;;;;9.20;100.00;102188.88;2611817;31;20193;-70
2021/11/14 07:32:58;;;;;;;63.75;30.63;;;;;;;9.13;100.00;102195.59;2611131;36;20157;-70
2021/11/14 07:35:27;;;;;;;62.13;29.85;;;;;;;9.12;100.00;102196.53;2611535;36;20069;-70
2021/11/14 07:37:58;;;;;;;;;;;;;;;9.11;100.00;102194.78;2611875;36;20042;-70
2021/11/14 07:40:27;;;;;;;58.00;27.75;;;;;;;9.19;100.00;102210.47;2611664;36;20038;-70
2021/11/14 07:42:57;;;;;;;57.15;27.58;;;;;;;9.21;100.00;102209.38;2612103;36;20037;-70
2021/11/14 07:45:28;;;;;;;61.05;30.60;;;;;;;9.14;100.00;102210.72;2611523;36;20038;-69
2021/11/14 07:47:57;;;;;;;51.53;26.13;;;;;;;9.23;100.00;102214.66;2611350;36;20042;-69
2021/11/14 07:50:28;;;;;;;53.20;25.38;;;;;;;9.13;100.00;102214.38;2611323;36;20062;-69
2021/11/14 07:53:02;;;;;;;51.88;25.83;;;;;;;9.25;100.00;102226.19;2611778;36;20030;-70
2021/11/14 07:55:30;;;;;;;50.55;25.10;;;;;;;9.22;100.00;102223.72;2611519;36;20732;-70
2021/11/14 07:58:02;;;;;;;49.22;25.00;;;;;;;9.19;100.00;102240.88;2611503;36;20572;-70
2021/11/14 08:00:31;;;;;;;52.70;25.42;;;;;;;9.22;100.00;102237.13;2612642;36;20467;-72
2021/11/14 08:02:59;;;;;;;50.60;24.23;;;;;;;9.19;100.00;102235.50;2611659;36;20077;-70
2021/11/14 08:05:28;;;;;;;52.15;25.00;;;;;;;9.17;100.00;102242.78;2611616;36;20035;-70
2021/11/14 08:07:59;;;;;;;53.50;24.98;;;;;;;9.26;100.00;102249.41;2610889;31;20030;-69
2021/11/14 08:10:29;;;;;;;55.90;26.27;;;;;;;9.23;100.00;102242.41;2612092;31;20586;-71
2021/11/14 08:12:58;;;;;;;57.30;26.08;;;;;;;9.25;100.00;102247.69;2611690;36;20057;-72
2021/11/14 08:15:26;;;;;;;54.80;26.42;;;;;;;9.25;100.00;102245.00;2611309;36;20030;-70
2021/11/14 08:17:54;;;;;;;51.72;25.25;;;;;;;9.28;100.00;102250.19;2611439;36;20166;-70
2021/11/14 08:20:23;;;;;;;54.50;26.13;;;;;;;9.37;100.00;102244.25;2611226;36;20126;-70
2021/11/14 08:22:52;;;;;;;51.88;25.75;;;;;;;9.30;100.00;102242.88;2611348;36;20499;-71
2021/11/14 08:25:23;;;;;;;54.10;25.13;;;;;;;9.37;100.00;102252.31;2611758;36;20046;-69
2021/11/14 08:27:51;;;;;;;47.75;23.23;;;;;;;9.40;100.00;102248.56;2611535;36;20041;-70
2021/11/14 08:30:20;;;;;;;51.45;23.65;;;;;;;9.33;100.00;102258.81;2611272;36;20590;-69
2021/11/14 08:32:49;;;;;;;52.85;24.75;;;;;;;9.42;100.00;102263.66;2611382;36;20427;-73
2021/11/14 08:35:18;;;;;;;48.17;24.35;;;;;;;9.40;100.00;102270.06;2611293;36;21008;-70
2021/11/14 08:37:48;;;;;;;49.85;23.02;;;;;;;9.40;100.00;102270.94;2611242;36;20130;-69
2021/11/14 08:40:16;;;;;;;;;;;;;;;9.46;100.00;102270.53;2611091;31;20030;-68
2021/11/14 08:42:47;;;;;;;45.33;22.63;;;;;;;9.53;100.00;102275.56;2611059;36;19957;-72
2021/11/14 08:45:16;;;;;;;42.20;22.10;;;;;;;9.59;100.00;102269.81;2611970;36;20173;-70
2021/11/14 08:47:44;;;;;;;42.90;22.27;;;;;;;9.66;100.00;102276.53;2611426;36;20042;-70
2021/11/14 08:50:14;;;;;;;39.60;20.98;;;;;;;9.65;100.00;102277.47;2611095;36;20053;-70
2021/11/14 08:52:45;;;;;;;41.40;19.83;;;;;;;9.58;100.00;102274.31;2612375;36;20038;-70
2021/11/14 08:55:14;;;;;;;38.33;21.10;;;;;;;9.54;100.00;102277.28;2611100;36;20045;-70
2021/11/14 08:57:43;;;;;;;40.08;19.83;;;;;;;9.49;100.00;102277.56;2611772;36;20030;-70
2021/11/14 09:00:16;;;;;;;41.47;20.27;;;;;;;9.50;100.00;102279.31;2610415;36;20053;-70
2021/11/14 09:02:44;;;;;;;40.05;20.20;;;;;;;9.58;100.00;102284.19;2610621;36;20030;-73
2021/11/14 09:05:12;;;;;;;40.42;21.67;;;;;;;9.68;100.00;102296.09;2610816;36;20038;-71
2021/11/14 09:07:41;;;;;;;39.60;20.25;;;;;;;9.85;100.00;102286.13;2610807;36;20161;-70
2021/11/14 09:10:10;;;;;;;42.80;21.52;;;;;;;9.82;100.00;102288.06;2611476;36;20579;-70
2021/11/14 09:12:38;;;;;;;;;;;;;;;9.79;100.00;102303.50;2611831;36;20045;-71
2021/11/14 09:15:08;;;;;;;38.13;20.67;;;;;;;9.82;100.00;102298.81;2611688;36;20030;-71
2021/11/14 09:17:40;;;;;;;40.75;21.10;;;;;;;9.90;100.00;102310.91;2611156;36;20057;-70
2021/11/14 09:20:10;;;;;;;40.95;19.48;;;;;;;10.07;100.00;102304.47;2611483;31;20180;-70
2021/11/14 09:22:39;;;;;;;38.60;20.42;;;;;;;10.16;100.00;102315.50;2611657;36;20129;-70
2021/11/14 09:25:09;;;;;;;39.70;20.38;;;;;;;10.00;100.00;102306.69;2611597;36;20187;-70
2021/11/14 09:27:37;;;;;;;41.22;19.42;;;;;;;10.08;100.00;102304.38;2611532;36;20104;-71
2021/11/14 09:30:07;;;;;;;33.73;19.53;;;;;;;9.99;100.00;102316.56;2611839;36;20041;-72
2021/11/14 09:32:36;;;;;;;32.42;18.30;;;;;;;9.96;100.00;102310.53;2611823;36;20086;-73
2021/11/14 09:35:08;;;;;;;38.58;20.35;;;;;;;9.90;100.00;102319.00;2611969;36;20138;-74
2021/11/14 09:37:36;;;;;;;32.30;18.30;;;;;;;9.93;100.00;102321.47;2612538;31;20666;-70
2021/11/14 09:40:05;;;;;;;36.50;19.83;;;;;;;9.92;100.00;102325.13;2611493;36;20159;-73
2021/11/14 09:42:35;;;;;;;32.75;18.70;;;;;;;10.10;100.00;102328.47;2612332;31;20126;-71
2021/11/14 09:45:03;;;;;;;;;;;;;;;9.89;100.00;102331.56;2612058;31;20069;-71
2021/11/14 09:47:31;;;;;;;38.97;20.03;;;;;;;9.95;100.00;102338.38;2612668;31;20564;-74
2021/11/14 09:50:00;;;;;;;34.70;19.15;;;;;;;10.05;100.00;102350.28;2611028;36;20125;-76
2021/11/14 09:52:31;;;;;;;33.63;17.80;;;;;;;9.93;100.00;102353.75;2610954;31;20043;-71
2021/11/14 09:55:00;;;;;;;32.05;18.70;;;;;;;9.89;100.00;102347.69;2611024;36;20034;-68
2021/11/14 09:57:28;;;;;;;35.15;19.30;;;;;;;9.84;100.00;102360.56;2611019;36;20035;-71
2021/11/14 09:59:57;;;;;;;36.38;18.33;;;;;;;9.85;100.00;102361.41;2611339;36;20038;-71
2021/11/14 10:02:25;;;;;;;;;;;;;;;9.98;100.00;102357.91;2611582;36;20073;-71
2021/11/14 10:04:54;;;;;;;31.65;18.10;;;;;;;9.92;100.00;102369.03;2612317;36;20063;-71
2021/11/14 10:07:23;;;;;;;31.00;17.13;;;;;;;10.01;100.00;102356.81;2611781;36;20030;-71
2021/11/14 10:09:55;;;;;;;;;;;;;;;10.10;100.00;102356.25;2612601;36;20058;-71
2021/11/14 10:12:25;;;;;;;30.38;15.85;;;;;;;9.87;100.00;102364.91;2612014;36;20121;-71
2021/11/14 10:15:08;;;;;;;35.75;18.95;;;;;;;9.82;100.00;102362.50;2611538;36;20145;-72
2021/11/14 10:17:37;;;;;;;28.48;16.67;;;;;;;9.93;100.00;102361.81;2611516;36;20163;-71
2021/11/14 10:20:13;;;;;;;33.20;16.95;;;;;;;9.86;100.00;102364.00;2610489;36;20030;-73
2021/11/14 10:22:43;;;;;;;33.70;18.73;;;;;;;9.84;100.00;102375.84;2611593;31;20030;-71
2021/11/14 10:25:15;;;;;;;32.40;17.77;;;;;;;9.95;100.00;102370.66;2611866;36;20067;-71
2021/11/14 10:27:44;;;;;;;28.75;16.83;;;;;;;9.88;100.00;102372.88;2612266;36;20061;-70
2021/11/14 10:30:14;;;;;;;28.10;16.88;;;;;;;10.09;100.00;102375.19;2611354;36;20122;-70
2021/11/14 10:32:43;;;;;;;33.05;17.67;;;;;;;10.08;100.00;102379.69;2612333;31;20166;-70
2021/11/14 10:35:13;;;;;;;27.63;17.38;;;;;;;9.99;100.00;102383.81;2611332;36;20141;-72
2021/11/14 10:37:45;;;;;;;30.00;17.08;;;;;;;9.96;100.00;102388.53;2611352;36;20031;-70
2021/11/14 10:40:20;;;;;;;30.95;17.00;;;;;;;10.10;100.00;102393.94;2611498;36;20034;-71
2021/11/14 10:42:50;;;;;;;28.52;16.75;;;;;;;10.15;100.00;102396.31;2612060;36;20030;-69
2021/11/14 10:45:19;;;;;;;33.95;19.38;;;;;;;9.96;100.00;102396.59;2611175;31;20126;-72
2021/11/14 10:47:56;;;;;;;33.75;18.17;;;;;;;9.97;100.00;102391.13;2612049;36;20149;-70
2021/11/14 10:50:28;;;;;;;29.67;17.27;;;;;;;10.01;100.00;102402.53;2609402;31;20581;-70
2021/11/14 10:52:58;;;;;;;30.73;17.98;;;;;;;10.10;100.00;102404.69;2612555;36;20038;-71
2021/11/14 10:55:34;;;;;;;32.28;18.13;;;;;;;10.04;100.00;102399.69;2610644;36;20034;-71
2021/11/14 10:58:02;;;;;;;29.67;16.42;;;;;;;10.20;100.00;102410.34;2612309;36;20619;-71
2021/11/14 11:00:31;;;;;;;31.80;18.67;;;;;;;10.26;100.00;102404.59;2611648;36;20178;-71
2021/11/14 11:02:59;;;;;;;32.92;18.75;;;;;;;10.23;100.00;102409.28;2612072;36;20130;-71
2021/11/14 11:05:29;;;;;;;32.17;18.63;;;;;;;10.13;100.00;102411.72;2612018;36;20185;-70
2021/11/14 11:07:59;;;;;;;33.95;19.15;;;;;;;10.11;100.00;102410.91;2612791;36;20633;-70
2021/11/14 11:10:34;;;;;;;34.05;18.67;;;;;;;10.06;100.00;102418.44;2611903;36;20035;-72
2021/11/14 11:13:03;;;;;;;34.92;19.45;;;;;;;10.06;100.00;102421.97;2612059;31;20043;-73
2021/11/14 11:15:42;;;;;;;33.28;17.25;;;;;;;9.98;100.00;102422.44;2609924;36;21305;-72
2021/11/14 11:18:13;;;;;;;32.10;17.77;;;;;;;10.02;100.00;102416.88;2611544;36;20658;-72
2021/11/14 11:20:43;;;;;;;33.08;19.05;;;;;;;10.05;100.00;102417.53;2613078;39;20444;-72
2021/11/14 11:23:16;;;;;;;29.20;16.70;;;;;;;10.18;100.00;102412.28;2612310;36;20473;-71
2021/11/14 11:28:34;;;;;;;30.67;17.00;;;;;;;10.29;100.00;102419.66;2611199;36;20041;-71
2021/11/14 11:31:04;;;;;;;29.63;16.25;;;;;;;10.13;100.00;102423.31;2611182;36;20035;-71
2021/11/14 11:33:35;;;;;;;27.88;16.60;;;;;;;10.22;100.00;102429.97;2611865;36;20031;-71